Time;durP1;ratioP1;P1;durP2;ratioP2;P2;SDS_P1;SDS_P2;PMS_P1;PMS_P2;Temp;Humidity;BMP_temperature;BMP_pressure;BME280_temperature;BME280_humidity;BME280_pressure;Samples;Min_cycle;Max_cycle;Signal;HPM_P1;HPM_P2
2023/01/05 00:02:36;;;;;;;0.40;0.40;;;;;;;;;;5055202;28;20221;-25
2023/01/05 00:24:55;;;;;;;0.27;0.27;;;;;;;;;;5043141;28;20205;-31
2023/01/05 00:27:34;;;;;;;2.07;0.30;;;;;;;;;;5069215;28;20219;-34
2023/01/05 00:30:21;;;;;;;0.23;0.23;;;;;;;;;;5060654;28;20226;-35
2023/01/05 00:33:10;;;;;;;0.30;0.30;;;;;;;;;;5063596;28;20222;-30
2023/01/05 00:35:46;;;;;;;0.43;0.40;;;;;;;;;;5055514;28;20206;-28
2023/01/05 00:38:27;;;;;;;0.30;0.30;;;;;;;;;;5066398;28;20258;-37
2023/01/05 00:41:05;;;;;;;0.30;0.30;;;;;;;;;;5066092;28;20237;-33
2023/01/05 00:43:46;;;;;;;0.20;0.20;;;;;;;;;;5062411;28;20205;-33
2023/01/05 00:46:32;;;;;;;0.30;0.30;;;;;;;;;;5063924;28;20201;-32
2023/01/05 00:49:05;;;;;;;0.20;0.20;;;;;;;;;;5054587;28;20285;-33
2023/01/05 00:51:49;;;;;;;0.20;0.20;;;;;;;;;;5057291;28;20221;-35
2023/01/05 00:54:39;;;;;;;0.20;0.20;;;;;;;;;;5058417;28;20202;-31
2023/01/05 00:57:18;;;;;;;0.10;0.10;;;;;;;;;;5052346;28;20285;-34
2023/01/05 00:59:57;;;;;;;0.27;0.27;;;;;;;;;;5069230;28;20282;-31
2023/01/05 01:02:37;;;;;;;0.10;0.10;;;;;;;;;;5066272;28;20222;-30
2023/01/05 01:05:28;;;;;;;0.20;0.20;;;;;;;;;;5038631;28;20229;-31
2023/01/05 01:08:06;;;;;;;0.30;0.30;;;;;;;;;;5066226;28;20209;-29
2023/01/05 01:10:45;;;;;;;0.10;0.10;;;;;;;;;;5056676;28;20288;-36
2023/01/05 01:13:27;;;;;;;0.20;0.20;;;;;;;;;;5068063;28;20259;-29
2023/01/05 01:16:05;;;;;;;0.13;0.13;;;;;;;;;;5059833;28;20213;-29
2023/01/05 01:19:10;;;;;;;0.20;0.20;;;;;;;;;;5054259;28;20225;-31
2023/01/05 01:21:53;;;;;;;0.20;0.20;;;;;;;;;;5058858;28;20217;-34
2023/01/05 01:24:34;;;;;;;0.27;0.27;;;;;;;;;;5063308;28;20656;-34
2023/01/05 01:27:20;;;;;;;0.20;0.20;;;;;;;;;;5055510;28;20209;-32
2023/01/05 01:30:00;;;;;;;0.40;0.30;;;;;;;;;;5061262;28;20256;-30
2023/01/05 01:32:49;;;;;;;0.23;0.20;;;;;;;;;;5072410;28;20228;-34
2023/01/05 01:35:37;;;;;;;0.50;0.20;;;;;;;;;;5076077;28;20209;-31
2023/01/05 01:41:11;;;;;;;0.10;0.10;;;;;;;;;;5061499;28;20229;-36
2023/01/05 01:44:08;;;;;;;0.10;0.10;;;;;;;;;;5063658;28;20217;-28
2023/01/05 01:46:46;;;;;;;0.10;0.10;;;;;;;;;;5057574;28;20209;-29
2023/01/05 01:55:19;;;;;;;0.20;0.20;;;;;;;;;;5068217;28;20224;-31
2023/01/05 01:58:23;;;;;;;;;;;;;;;;;;;;;
2023/01/05 02:01:14;;;;;;;0.83;0.27;;;;;;;;;;5045793;28;20241;-35
2023/01/05 02:04:06;;;;;;;0.10;0.10;;;;;;;;;;5060714;28;20214;-31
2023/01/05 02:15:28;;;;;;;0.20;0.20;;;;;;;;;;5017334;28;20206;-32
2023/01/05 02:21:35;;;;;;;0.10;0.10;;;;;;;;;;5006468;28;20295;-32
2023/01/05 02:24:39;;;;;;;0.47;0.17;;;;;;;;;;5014249;28;20218;-31
2023/01/05 02:27:44;;;;;;;0.50;0.30;;;;;;;;;;5021508;28;20264;-34
2023/01/05 02:30:42;;;;;;;0.57;0.20;;;;;;;;;;5002839;28;20203;-29
2023/01/05 02:36:35;;;;;;;0.17;0.17;;;;;;;;;;4999360;28;20207;-31
2023/01/05 02:39:17;;;;;;;0.83;0.20;;;;;;;;;;5010389;28;20323;-31
2023/01/05 02:42:23;;;;;;;0.17;0.17;;;;;;;;;;5021016;28;20226;-32
2023/01/05 02:45:07;;;;;;;0.10;0.10;;;;;;;;;;5008048;28;20273;-31
2023/01/05 02:47:50;;;;;;;0.10;0.10;;;;;;;;;;5021759;28;20203;-31
2023/01/05 02:50:43;;;;;;;0.10;0.10;;;;;;;;;;5011895;28;20210;-31
2023/01/05 02:53:24;;;;;;;1.13;0.20;;;;;;;;;;5007374;28;20207;-36
2023/01/05 02:56:12;;;;;;;1.07;0.20;;;;;;;;;;4998460;28;20207;-33
2023/01/05 03:01:57;;;;;;;0.20;0.10;;;;;;;;;;5012154;28;20233;-28
2023/01/05 03:04:41;;;;;;;1.43;0.20;;;;;;;;;;5034123;28;20187;-32
2023/01/05 03:07:31;;;;;;;0.67;0.07;;;;;;;;;;5026274;28;20210;-33
2023/01/05 03:36:24;;;;;;;0.10;0.10;;;;;;;;;;5015996;28;20201;-35
2023/01/05 03:39:16;;;;;;;0.07;0.07;;;;;;;;;;5016797;28;20207;-29
2023/01/05 03:55:52;;;;;;;0.10;0.10;;;;;;;;;;5037714;28;20199;-28
2023/01/05 04:01:18;;;;;;;0.20;0.20;;;;;;;;;;5799816;22;20227;-24
2023/01/05 04:09:48;;;;;;;0.10;0.10;;;;;;;;;;5017758;28;20293;-27
2023/01/05 04:12:36;;;;;;;0.30;0.20;;;;;;;;;;5020869;28;20219;-23
2023/01/05 04:15:39;;;;;;;0.37;0.20;;;;;;;;;;5011522;28;20257;-25
2023/01/05 04:21:37;;;;;;;0.20;0.20;;;;;;;;;;5013529;28;20241;-22
2023/01/05 04:24:46;;;;;;;0.10;0.10;;;;;;;;;;5000989;28;20207;-26
2023/01/05 04:28:15;;;;;;;;;;;;;;;;;;;;;
2023/01/05 04:39:36;;;;;;;0.20;0.10;;;;;;;;;;5032871;28;20295;-25
2023/01/05 04:45:50;;;;;;;0.10;0.10;;;;;;;;;;5019678;28;20218;-25
2023/01/05 05:26:56;;;;;;;0.10;0.10;;;;;;;;;;5047943;28;20348;-24
2023/01/05 05:38:00;;;;;;;0.10;0.10;;;;;;;;;;4996376;28;20219;-26
2023/01/05 05:40:58;;;;;;;0.10;0.10;;;;;;;;;;4987936;28;20251;-28
2023/01/05 05:47:11;;;;;;;0.40;0.20;;;;;;;;;;5363273;23;20280;-28
2023/01/05 05:49:55;;;;;;;1.33;0.20;;;;;;;;;;5043741;28;20213;-25
2023/01/05 05:52:51;;;;;;;0.50;0.10;;;;;;;;;;5027881;28;20232;-26
2023/01/05 06:28:56;;;;;;;1.63;0.70;;;;;;;;;;5016454;28;20264;-24
2023/01/05 06:32:01;;;;;;;0.40;0.37;;;;;;;;;;5016636;28;20215;-29
2023/01/05 06:40:59;;;;;;;1.00;0.60;;;;;;;;;;5016558;28;20218;-29
2023/01/05 06:43:53;;;;;;;0.40;0.40;;;;;;;;;;5008789;28;20212;-26
2023/01/05 06:46:27;;;;;;;1.67;0.77;;;;;;;;;;5014047;28;20245;-25
2023/01/05 06:49:13;;;;;;;0.60;0.60;;;;;;;;;;5016557;28;20283;-27
2023/01/05 06:51:54;;;;;;;0.70;0.70;;;;;;;;;;5015905;28;20235;-27
2023/01/05 06:54:50;;;;;;;0.40;0.40;;;;;;;;;;5009968;28;20310;-27
2023/01/05 06:57:49;;;;;;;0.20;0.20;;;;;;;;;;5015543;28;20230;-29
2023/01/05 07:00:51;;;;;;;0.20;0.20;;;;;;;;;;4996660;28;20283;-25
2023/01/05 07:03:33;;;;;;;0.60;0.20;;;;;;;;;;5016284;28;20237;-24
2023/01/05 07:06:34;;;;;;;1.67;0.70;;;;;;;;;;5017475;28;20222;-25
2023/01/05 07:09:37;;;;;;;0.60;0.53;;;;;;;;;;5000074;28;20203;-26
2023/01/05 07:21:51;;;;;;;2.40;0.70;;;;;;;;;;5027940;22;20237;-24
2023/01/05 08:24:51;;;;;;;1.87;0.67;;;;;;;;;;5050916;28;20305;-25
2023/01/05 08:27:33;;;;;;;1.37;0.73;;;;;;;;;;5068677;28;20219;-26
2023/01/05 08:30:29;;;;;;;2.93;0.77;;;;;;;;;;5059141;28;20247;-27
2023/01/05 08:36:19;;;;;;;2.73;0.80;;;;;;;;;;5033067;28;20206;-25
2023/01/05 08:39:09;;;;;;;1.93;0.70;;;;;;;;;;5018467;28;20218;-25
2023/01/05 08:41:57;;;;;;;0.73;0.70;;;;;;;;;;5021202;28;20231;-26
2023/01/05 09:35:08;;;;;;;3.93;1.10;;;;;;;;;;5054607;28;20210;-28
2023/01/05 09:44:05;;;;;;;2.60;1.03;;;;;;;;;;5041575;28;20293;-24
2023/01/05 09:47:11;;;;;;;2.43;0.97;;;;;;;;;;5053242;28;20216;-24
2023/01/05 09:50:07;;;;;;;6.83;1.10;;;;;;;;;;5054601;28;20217;-26
2023/01/05 09:52:51;;;;;;;3.20;1.20;;;;;;;;;;5043444;28;20227;-25
2023/01/05 09:55:33;;;;;;;4.23;1.70;;;;;;;;;;5041679;28;20237;-24
2023/01/05 09:58:38;;;;;;;6.40;1.40;;;;;;;;;;5036224;28;20206;-28
2023/01/05 10:01:15;;;;;;;4.20;0.97;;;;;;;;;;5043839;28;20225;-23
2023/01/05 10:04:04;;;;;;;11.67;1.97;;;;;;;;;;5046275;28;20199;-27
2023/01/05 10:06:49;;;;;;;8.07;1.10;;;;;;;;;;5034130;28;20206;-24
2023/01/05 10:09:38;;;;;;;8.50;1.30;;;;;;;;;;5049478;28;20257;-25
2023/01/05 10:15:19;;;;;;;6.73;1.63;;;;;;;;;;5046473;28;20217;-28
2023/01/05 10:18:09;;;;;;;5.60;1.20;;;;;;;;;;5054116;28;20217;-29
2023/01/05 10:21:12;;;;;;;4.47;1.30;;;;;;;;;;5052738;28;20213;-25
2023/01/05 10:24:00;;;;;;;6.47;1.50;;;;;;;;;;5054560;28;20213;-27
2023/01/05 10:26:48;;;;;;;12.30;2.70;;;;;;;;;;5053741;28;20210;-28
2023/01/05 10:29:25;;;;;;;9.13;1.77;;;;;;;;;;5048065;28;20213;-25
2023/01/05 10:32:04;;;;;;;6.63;1.93;;;;;;;;;;5053606;28;20248;-25
2023/01/05 10:34:48;;;;;;;4.23;1.50;;;;;;;;;;5039886;28;20215;-26
2023/01/05 10:37:39;;;;;;;6.07;1.40;;;;;;;;;;5029604;28;20214;-26
2023/01/05 10:43:19;;;;;;;10.07;1.50;;;;;;;;;;5562721;22;20240;-35
2023/01/05 10:46:06;;;;;;;6.50;2.10;;;;;;;;;;5079931;28;20209;-32
2023/01/05 10:51:58;;;;;;;7.87;1.40;;;;;;;;;;5029782;28;20237;-29
2023/01/05 10:58:13;;;;;;;10.57;2.00;;;;;;;;;;5054211;28;20194;-31
2023/01/05 11:01:11;;;;;;;4.13;1.47;;;;;;;;;;5063291;28;20640;-26
2023/01/05 11:04:16;;;;;;;7.77;1.63;;;;;;;;;;5073485;28;20292;-29
2023/01/05 11:07:16;;;;;;;11.00;1.73;;;;;;;;;;5073154;28;20258;-30
2023/01/05 11:12:56;;;;;;;6.87;1.07;;;;;;;;;;5066478;28;20268;-32
2023/01/05 11:21:44;;;;;;;7.00;1.57;;;;;;;;;;5069504;28;20355;-28
2023/01/05 11:25:04;;;;;;;8.17;2.13;;;;;;;;;;5060117;28;20209;-32
2023/01/05 11:31:41;;;;;;;4.43;1.57;;;;;;;;;;5055052;28;20214;-28
2023/01/05 11:34:35;;;;;;;4.80;1.37;;;;;;;;;;5066160;28;20233;-28
2023/01/05 11:37:24;;;;;;;6.37;1.47;;;;;;;;;;5055746;28;20210;-29
2023/01/05 11:40:21;;;;;;;5.63;1.47;;;;;;;;;;5045271;28;20217;-31
2023/01/05 11:43:19;;;;;;;6.47;1.70;;;;;;;;;;5044182;28;20221;-33
2023/01/05 11:46:06;;;;;;;5.30;1.43;;;;;;;;;;5062540;28;20205;-31
2023/01/05 11:49:18;;;;;;;5.43;1.80;;;;;;;;;;5077569;28;20209;-32
2023/01/05 11:51:57;;;;;;;9.63;1.50;;;;;;;;;;5076281;28;20251;-36
2023/01/05 11:55:04;;;;;;;5.53;1.47;;;;;;;;;;5056299;28;20210;-32
2023/01/05 11:57:45;;;;;;;4.67;1.20;;;;;;;;;;5066201;28;20214;-28
2023/01/05 12:11:08;;;;;;;4.10;1.37;;;;;;;;;;5043442;28;20229;-27
2023/01/05 12:14:12;;;;;;;3.97;1.00;;;;;;;;;;5019525;28;20226;-25
2023/01/05 12:17:05;;;;;;;10.80;1.67;;;;;;;;;;5027607;28;20208;-25
2023/01/05 12:20:06;;;;;;;5.93;1.57;;;;;;;;;;5037470;28;20211;-21
2023/01/05 12:23:08;;;;;;;4.97;1.30;;;;;;;;;;5030371;28;20227;-26
2023/01/05 12:54:27;;;;;;;6.10;1.93;;;;;;;;;;5030902;28;20219;-24
2023/01/05 12:57:26;;;;;;;8.50;1.80;;;;;;;;;;5029735;28;20230;-27
2023/01/05 13:03:28;;;;;;;3.00;0.67;;;;;;;;;;5014544;28;20227;-21
2023/01/05 13:06:13;;;;;;;6.33;1.30;;;;;;;;;;4996608;28;20215;-23
2023/01/05 13:09:02;;;;;;;6.93;1.70;;;;;;;;;;5014530;28;20211;-23
2023/01/05 13:35:07;;;;;;;3.72;1.25;;;;;;;;;;4744598;27;10492660;-22
2023/01/05 13:41:28;;;;;;;4.90;1.27;;;;;;;;;;5101449;28;20296;-25
2023/01/05 13:44:27;;;;;;;10.77;1.83;;;;;;;;;;5087385;28;20294;-23
2023/01/05 14:36:04;;;;;;;12.37;2.27;;;;;;;;;;5025545;28;20224;-25
2023/01/05 15:48:59;;;;;;;9.13;1.83;;;;;;;;;;5032691;28;20218;-24
2023/01/05 15:52:07;;;;;;;8.70;1.90;;;;;;;;;;5010548;28;20486;-24
2023/01/05 15:55:01;;;;;;;8.80;1.67;;;;;;;;;;5013749;28;20211;-24
2023/01/05 15:57:55;;;;;;;5.90;2.30;;;;;;;;;;5013997;28;20207;-23
2023/01/05 16:00:54;;;;;;;5.30;1.73;;;;;;;;;;5011349;28;20292;-21
2023/01/05 16:07:01;;;;;;;10.53;2.13;;;;;;;;;;5011342;28;20226;-25
2023/01/05 16:09:42;;;;;;;7.13;1.93;;;;;;;;;;5014852;28;20229;-26
2023/01/05 16:12:28;;;;;;;7.70;1.77;;;;;;;;;;5013309;28;20237;-26
2023/01/05 16:15:20;;;;;;;18.60;7.80;;;;;;;;;;5005776;28;20419;-25
2023/01/05 16:18:17;;;;;;;41.90;19.07;;;;;;;;;;5018175;28;20219;-24
2023/01/05 16:21:20;;;;;;;23.10;9.50;;;;;;;;;;5027505;28;20238;-28
2023/01/05 16:24:21;;;;;;;13.67;3.93;;;;;;;;;;5020175;28;20230;-28
2023/01/05 16:27:09;;;;;;;6.80;2.20;;;;;;;;;;4992036;28;20210;-27
2023/01/05 16:30:01;;;;;;;12.57;2.37;;;;;;;;;;5001848;28;20315;-26
2023/01/05 16:32:48;;;;;;;8.80;2.10;;;;;;;;;;5009240;28;20223;-25
2023/01/05 16:35:46;;;;;;;3.97;2.30;;;;;;;;;;5013810;28;20207;-25
2023/01/05 17:10:19;;;;;;;5.50;1.77;;;;;;;;;;5026260;28;20226;-24
2023/01/05 17:34:50;;;;;;;8.37;1.90;;;;;;;;;;4994637;28;20282;-26
2023/01/05 17:37:41;;;;;;;20.90;9.60;;;;;;;;;;5034106;28;20214;-29
2023/01/05 17:46:22;;;;;;;6.23;2.90;;;;;;;;;;5023217;28;20211;-25
2023/01/05 17:49:05;;;;;;;6.00;2.90;;;;;;;;;;4996953;28;20206;-27
2023/01/05 17:52:05;;;;;;;5.37;2.60;;;;;;;;;;5012738;28;20254;-26
2023/01/05 17:54:55;;;;;;;6.90;3.07;;;;;;;;;;5016881;28;20207;-22
2023/01/05 18:01:06;;;;;;;8.03;2.30;;;;;;;;;;5024816;28;20213;-26
2023/01/05 18:04:04;;;;;;;8.17;2.40;;;;;;;;;;5022372;28;20223;-27
2023/01/05 18:06:47;;;;;;;8.77;2.30;;;;;;;;;;5024328;28;20633;-27
2023/01/05 18:12:19;;;;;;;7.23;3.37;;;;;;;;;;5034333;28;20261;-26
2023/01/05 18:14:57;;;;;;;6.50;3.60;;;;;;;;;;5026887;28;20215;-24
2023/01/05 18:17:43;;;;;;;7.17;3.47;;;;;;;;;;5018349;28;20305;-25
2023/01/05 18:26:04;;;;;;;6.87;2.90;;;;;;;;;;5026550;28;20207;-24
2023/01/05 18:50:29;;;;;;;12.47;6.83;;;;;;;;;;5033403;28;20234;-25
2023/01/05 18:53:29;;;;;;;14.17;5.73;;;;;;;;;;5009406;28;20209;-25
2023/01/05 18:59:29;;;;;;;7.23;4.27;;;;;;;;;;5011041;28;20214;-24
2023/01/05 19:02:14;;;;;;;8.67;4.23;;;;;;;;;;5012474;28;20243;-24
2023/01/05 19:05:42;;;;;;;8.20;4.10;;;;;;;;;;5019729;28;20290;-23
2023/01/05 19:11:38;;;;;;;7.00;3.10;;;;;;;;;;5015280;28;20377;-26
2023/01/05 19:14:41;;;;;;;8.00;4.13;;;;;;;;;;5013318;28;20203;-26
2023/01/05 19:17:52;;;;;;;6.53;3.67;;;;;;;;;;5010106;28;20211;-23
2023/01/05 19:20:30;;;;;;;9.80;4.33;;;;;;;;;;5012887;28;20207;-24
2023/01/05 19:23:17;;;;;;;11.67;3.67;;;;;;;;;;5014496;28;20227;-26
2023/01/05 19:32:24;;;;;;;5.73;3.20;;;;;;;;;;5035357;22;20292;-26
2023/01/05 19:35:18;;;;;;;10.90;4.60;;;;;;;;;;5027957;28;20222;-27
2023/01/05 19:38:09;;;;;;;12.03;6.10;;;;;;;;;;5022307;28;20202;-24
2023/01/05 19:40:52;;;;;;;7.37;4.07;;;;;;;;;;5027318;28;20324;-25
2023/01/05 19:47:12;;;;;;;7.33;2.63;;;;;;;;;;5043354;28;20225;-28
2023/01/05 19:52:52;;;;;;;9.20;2.47;;;;;;;;;;5026995;28;20347;-26
2023/01/05 20:01:56;;;;;;;4.47;3.57;;;;;;;;;;5030375;28;20234;-25
2023/01/05 20:07:38;;;;;;;53.50;21.67;;;;;;;;;;5026355;28;20269;-25
2023/01/05 20:10:29;;;;;;;19.47;8.47;;;;;;;;;;5024220;28;20274;-26
2023/01/05 20:13:10;;;;;;;11.87;6.13;;;;;;;;;;5023728;28;20245;-23
2023/01/05 20:18:46;;;;;;;12.67;5.77;;;;;;;;;;5033393;28;20210;-28
2023/01/05 20:24:41;;;;;;;9.43;4.80;;;;;;;;;;5023901;28;20222;-26
2023/01/05 20:27:35;;;;;;;9.63;5.07;;;;;;;;;;5019473;28;20211;-23
2023/01/05 20:30:19;;;;;;;10.77;4.87;;;;;;;;;;5024666;28;20211;-26
2023/01/05 20:39:32;;;;;;;10.50;5.13;;;;;;;;;;5018354;28;20265;-26
2023/01/05 20:52:48;;;;;;;13.23;5.87;;;;;;;;;;5004073;28;20239;-25
2023/01/05 21:01:43;;;;;;;12.67;5.03;;;;;;;;;;4998205;28;20230;-25
2023/01/05 21:04:28;;;;;;;11.27;5.10;;;;;;;;;;4999443;28;20258;-28
2023/01/05 21:07:17;;;;;;;9.60;5.43;;;;;;;;;;5010922;28;20207;-26
2023/01/05 21:09:57;;;;;;;9.73;5.27;;;;;;;;;;5001448;28;20204;-28
2023/01/05 21:12:36;;;;;;;7.20;5.70;;;;;;;;;;5004594;28;20284;-23
2023/01/05 21:15:14;;;;;;;10.37;5.57;;;;;;;;;;5009463;28;20276;-27
2023/01/05 21:17:50;;;;;;;10.00;4.80;;;;;;;;;;5013111;28;20211;-26
2023/01/05 21:23:23;;;;;;;10.40;5.67;;;;;;;;;;5056547;22;20237;-24
2023/01/05 21:26:00;;;;;;;11.50;5.37;;;;;;;;;;5040727;28;20203;-28
2023/01/05 21:28:59;;;;;;;11.07;5.73;;;;;;;;;;5046202;28;20209;-24
2023/01/05 21:31:30;;;;;;;10.67;5.43;;;;;;;;;;5034099;28;20226;-23
2023/01/05 21:34:19;;;;;;;6.53;4.57;;;;;;;;;;5031885;28;20233;-24
2023/01/05 21:36:48;;;;;;;6.10;4.50;;;;;;;;;;5031119;28;20285;-26
2023/01/05 22:00:00;;;;;;;10.50;5.43;;;;;;;;;;5014598;28;20202;-26
2023/01/05 22:02:35;;;;;;;8.67;5.13;;;;;;;;;;5006898;28;20231;-26
2023/01/05 22:05:29;;;;;;;7.70;4.57;;;;;;;;;;5023310;28;20222;-27
2023/01/05 22:08:26;;;;;;;;;;;;;;;;;;;;;
2023/01/05 22:11:09;;;;;;;10.87;6.10;;;;;;;;;;5023381;28;20235;-28
2023/01/05 22:14:11;;;;;;;8.90;5.30;;;;;;;;;;5014479;28;20207;-25
2023/01/05 22:17:07;;;;;;;8.43;5.23;;;;;;;;;;5015869;28;20220;-28
2023/01/05 22:23:08;;;;;;;10.20;5.33;;;;;;;;;;5002896;28;20313;-26
2023/01/05 22:32:24;;;;;;;7.03;5.23;;;;;;;;;;5016971;28;20218;-24
2023/01/05 22:35:21;;;;;;;7.50;5.87;;;;;;;;;;4997000;28;20204;-26
2023/01/05 22:38:11;;;;;;;9.47;5.27;;;;;;;;;;5007045;28;20229;-26
2023/01/05 22:41:09;;;;;;;12.00;5.67;;;;;;;;;;5002611;28;20254;-26
2023/01/05 22:44:01;;;;;;;8.20;5.43;;;;;;;;;;5007473;28;20213;-25
2023/01/05 22:46:53;;;;;;;7.83;5.47;;;;;;;;;;5014638;28;20325;-26
2023/01/05 22:49:35;;;;;;;11.37;5.43;;;;;;;;;;5015823;28;20215;-26
2023/01/05 22:52:22;;;;;;;11.03;5.93;;;;;;;;;;5011680;28;20238;-27
2023/01/05 22:55:17;;;;;;;11.37;5.70;;;;;;;;;;5011630;28;20200;-28
2023/01/05 22:58:10;;;;;;;7.37;5.60;;;;;;;;;;5014203;28;20206;-24
2023/01/05 23:01:00;;;;;;;7.50;5.53;;;;;;;;;;5014847;28;20238;-27
2023/01/05 23:03:40;;;;;;;8.63;5.50;;;;;;;;;;5016229;28;20211;-28
2023/01/05 23:06:28;;;;;;;8.40;5.87;;;;;;;;;;5014181;28;20208;-26
2023/01/05 23:09:13;;;;;;;8.47;5.57;;;;;;;;;;5009528;28;20211;-26
2023/01/05 23:12:03;;;;;;;9.27;5.50;;;;;;;;;;5012082;28;20753;-27
2023/01/05 23:14:52;;;;;;;9.73;6.70;;;;;;;;;;5024071;28;20199;-26
2023/01/05 23:17:36;;;;;;;10.13;6.40;;;;;;;;;;5019441;28;20207;-26
2023/01/05 23:20:40;;;;;;;9.97;5.70;;;;;;;;;;5015176;28;20211;-26
2023/01/05 23:23:45;;;;;;;7.87;5.63;;;;;;;;;;5009780;28;20212;-24
2023/01/05 23:26:22;;;;;;;15.07;8.50;;;;;;;;;;5010521;28;20203;-24
2023/01/05 23:29:09;;;;;;;7.20;5.77;;;;;;;;;;5006800;28;20206;-25
2023/01/05 23:31:54;;;;;;;9.90;6.67;;;;;;;;;;5013788;28;20282;-27
2023/01/05 23:47:06;;;;;;;11.57;6.27;;;;;;;;;;5029875;28;20203;-23
2023/01/05 23:50:07;;;;;;;12.80;6.20;;;;;;;;;;5014113;28;20203;-27
2023/01/05 23:53:01;;;;;;;10.17;5.80;;;;;;;;;;5016322;28;20226;-26
2023/01/05 23:59:06;;;;;;;10.03;6.60;;;;;;;;;;5023127;28;20204;-23
